Detall de PIREP

Printer-friendly versionPDF version

[2010/12/17 22:42:00]
Flight IATA:CT2111
Pilot Number:026
Company ICAO:CAT
Aircraft Type:DC85/A
PAX:136
Departing Airport: LEST
Destination Airport: LEVC
Alternate Airport:LEPA
Online: VATSIM
Route:FORNO UN733 ZMR UL155 KALMA UH100 CJN UN733 CLS
Flight Level:FL300
No Slew and time accel
No pause
Crash detect
Detect pilot in Cockpit between each 30 and 45 minutes
22:42 Zero fuel Weight: 179507 Lbs, Fuel Weight: 27103 Lbs
22:42 VATSIM:LEST 172230Z 00000KT 9999 3000N VCFG NSC 01/01 Q1005 NOSIG
22:42 VATSIM:LEVC 172230Z 29007KT 240V310 CAVOK 06/M06 Q1002 NOSIG
22:42 VOICE CATALONIAN / LEVC HUB ROUTE CT2111
22:43 Parking Brakes off
22:44 Take-off
22:44 Take off Weight: 206178 Lbs
22:44 Wind: 182º @ 001 Knots Heading: 346º
22:44 POS N42º 53´ 57´´ W008º 24´ 58´´
22:44 Gear Up: 165 Knots
22:44 Flaps:3 at 165 Knots
22:44 Flaps:2 at 142 Knots
22:46 Flaps:1 at 186 Knots
22:46 Flaps:0 at 164 Knots
22:59 Wind:299º@008 Knots Heading: 123º Ground Speed: 443 Knots Altitude 27778 ft
23:01 TOC
23:01 Fuel Weight: 21111 Lb
23:14 Wind:187º@008 Knots Heading: 139º Ground Speed: 458 Knots Altitude 29691 ft
23:29 Wind:248º@009 Knots Heading: 092º Ground Speed: 471 Knots Altitude 29691 ft
23:32 TOD
23:32 Fuel Weight: 13843 Lb
23:44 Wind:269º@024 Knots Heading: 183º Ground Speed: 308 Knots Altitude 12217 ft
23:51 Flaps:1 at 184 Knots
23:53 Gear Down: 196 Knots
23:54 Flaps:2 at 142 Knots
23:56 Flaps:3 at 151 Knots
23:56 Flaps:4 at 150 Knots
23:57 Flaps:5 at 139 Knots
23:57 TouchDown:Rate -269 ft/min Speed: 132 Knots
23:58 VATSIM:LEVC 172330Z 27009KT CAVOK 05/M06 Q1003 NOSIG
23:58 Land
23:58 Wind:273º@009 Knots
23:58 Heading: 298º
23:58 Flight Duration: 01:14
23:58 Landing Weight: 190727 Lbs
23:58 POS N39º 29´ 22´´ W000º 28´ 57´´
00:02 Parking brakes on
00:02 Block to Block Duration: 01:19
00:02 Final Fuel: 10864 Lbls
00:02 Spent Fuel: 16239 Lbls
00:02 Flight Length: 477 NM
00:02 TOD Land Length: 131 NM

Exportar CSV

Powered by Drupal - Modified by Danger4k